首页
METAR-TAF:

METAR-TAF

机场 :

Ingenika Point, 不列颠哥伦比亚, 加拿大

纬度: 56-48N, 经度: 124-54W, 海拔: 680米

当前天气观测

该预报发布于20小时和45分钟前的19:34 UTC
风速3节,风向
温度 -10°C
湿度 72%
气压 1020 hPa
能見度: 24.1公里
散云层高于2300英尺
散云层高于3800英尺
多云层高于13000英尺
多云层高于22000英尺

METAR: CWWU 191934Z 17003KT 15SM SCT023 SCT038 BKN130 BKN220 M10/M14 A3013 RMK SC3SC1AC1CI1 SLP204

时间: 08:19 (16:19 UTC)

预报

该预报发布于2小时和19分钟前的14:00 UTC
预报有效从20日的 14点(UTC)到 21日的 12点(UTC)
风速12节,风向西南,有时为22节阵风
能見度: 10公里
阴天层高于1200英尺
短暂存在
从 20日的 14点(UTC)到 20日的 16点(UTC)
能見度: 3.2公里
阴天层高于900英尺
小阵雪
成为
从 20日的 14点(UTC)到 20日的 16点(UTC)
风速10节,风向北转西北,有时为20节阵风
从 20日的 1600点(UTC)
风速10节,风向北转西北,有时为20节阵风
能見度: 10公里
阴天层高于1000英尺
小阵雪, 雨
从 20日的 2100点(UTC)
风速10节,风向北转西北
能見度: 10公里
多云层高于1000英尺
阴天层高于2000英尺
从 21日的 0600点(UTC)
风速8节,风向西转西北
能見度: 10公里
阴天层高于1000英尺

TAF: CWWU 201400Z 2014/2112 22012G22KT P6SM OVC012 TEMPO 2014/2016 2SM -SHSN OVC009 BECMG 2014/2016 34010G20KT FM201600 34010G20KT P6SM -SHSNRA OVC010 FM202100 34010KT P6SM BKN010 OVC020 FM210600 30008KT P6SM OVC010 RMK FCST BASED ON AUTO OBS. NXT FCST BY 201800Z

超过4000个机场的气象观测和天气预报(METAR&TAF报告)。

可查询的气象台以黄色和红色小点在地图上表示。

将鼠标移到小点上方,可查看气象台名称。

然后点击查看天气观测和预报。

如需切换地图:点击带黑十字的绿色按钮放大地图;点击带横线的绿色按钮缩小地图;或者点击绿色箭头查看邻近地区的地图。


METAR-TAF: